Airfield :
LOGIN :

Register | Disclaimer

   EN    FR    IT 

 










Legend :    VFR   Marginal VFR   IFR   Intensive IFR   Very Intensive IFR
Visi :
Ceiling :
>= 8 km
>= 3000ft
5 to 8 km
1000 to 3000 ft
1500m to 5 km
500 to 1000 ft
800 to 1500m
200 to 500 ft
< 800m
< 200 ft
Symbols :   Thunderstorms  Fog  Heavy snow  Heavy precipitations  Wind > 20 kt
SIGMETs :     Misc.  Thunderstorms  Icing  Turbulence  Mountain Waves  Volcanic Ashes






- Airport Elevation : 670 ft
- IATA code : MSQ


UMMS - Minsk - 2

CURRENT METAR :
  • 241730Z 30006MPS CAVOK 02/M05 Q1005 R88/190055 NOSIG

EXPIRED METARs :
  • 241700Z 30006G09MPS CAVOK 02/M05 Q1005 R88/190055 NOSIG
  • 241630Z 30008G11MPS CAVOK 03/M05 Q1004 R88/190055 NOSIG
  • 241600Z 31006G09MPS CAVOK 03/M04 Q1004 R88/190055 NOSIG
  • 241530Z 31007G10MPS 9999 FEW046 03/M03 Q1003 R88/190055 NOSIG

TAF TAF UMMS
Valid from the 24 at 18:00 until the 25 at 18:00 UTC


241711Z 2418/2518 29006G11MPS 9999 NSC TX02/2512Z TNM03/2503Z
BECMG 2422/2423 24005MPS
TEMPO 2423/2507 21003MPS 1500 BCFG BR SCT003
PROB40
TEMPO 2423/2507 0400 FZFG SCT002
BECMG 2507/2509 18005G10MPS 7000 OVC008
TEMPO 2509/2518 18007G12MPS 1200 RASN BR OVC003



MET'MAP, your aeronautical weather chart ! - Copyright ORBIFLY December 2007 - Disclaimer

ORBIFLY MET'MAP TEAM :

Programming & Development : Alexandra Zaïnal
Concept & original design : Baudouin d'Aumeries
Assistance for programming : Marc-Olivier Méhu
Technical & hardware support : Manuel Goepfert

Contact : metmap@orbifly.com




SOURCES & CREDITS :

   NOAA